Time;durP1;ratioP1;P1;durP2;ratioP2;P2;SDS_P1;SDS_P2;PMS_P1;PMS_P2;Temp;Humidity;BMP_temperature;BMP_pressure;BME280_temperature;BME280_humidity;BME280_pressure;Samples;Min_cycle;Max_cycle;Signal;HPM_P1;HPM_P2
2024/04/06 00:02:23;;;;;;;11.40;6.70;;;13.20;99.90;;;13.29;90.62;98755.91;5077117;28;20204;-70
2024/04/06 00:04:49;;;;;;;9.17;6.60;;;13.10;99.90;;;13.28;90.41;98756.06;5069249;28;20238;-70
2024/04/06 00:07:15;;;;;;;11.30;7.67;;;13.10;99.90;;;13.22;90.63;98749.50;5056211;28;20193;-69
2024/04/06 00:09:40;;;;;;;10.57;7.00;;;13.10;99.90;;;13.19;90.83;98747.97;5065110;28;20673;-69
2024/04/06 00:12:07;;;;;;;11.80;6.73;;;13.00;99.90;;;13.12;90.59;98753.97;5069997;28;20272;-69
2024/04/06 00:14:33;;;;;;;13.03;7.23;;;13.00;99.90;;;13.08;90.64;98755.19;5066674;28;20683;-69
2024/04/06 00:16:59;;;;;;;9.83;6.70;;;13.00;99.90;;;13.05;91.12;98745.78;5046935;28;20225;-69
2024/04/06 00:19:24;;;;;;;9.73;6.73;;;13.00;99.90;;;12.97;91.10;98746.44;5067964;28;20646;-69
2024/04/06 00:21:50;;;;;;;9.77;6.37;;;12.90;99.90;;;12.97;91.04;98751.72;5066296;28;20206;-68
2024/04/06 00:24:16;;;;;;;9.70;6.77;;;12.90;99.90;;;12.93;90.73;98745.06;5068456;28;20185;-68
2024/04/06 00:26:43;;;;;;;12.40;7.13;;;12.80;99.90;;;12.93;90.66;98747.72;5067405;28;20190;-69
2024/04/06 00:29:09;;;;;;;8.90;7.10;;;12.80;99.90;;;12.88;90.45;98749.91;5070650;28;20479;-68
2024/04/06 00:31:35;;;;;;;9.00;6.03;;;12.80;99.90;;;12.87;90.68;98748.25;5082738;28;20470;-69
2024/04/06 00:34:03;;;;;;;10.40;6.87;;;12.70;99.90;;;12.84;90.47;98745.91;5065364;28;20189;-68
2024/04/06 00:36:29;;;;;;;9.80;6.40;;;12.70;99.90;;;12.79;90.88;98750.75;5063371;28;20186;-69
2024/04/06 00:38:55;;;;;;;8.57;5.63;;;12.70;99.90;;;12.72;90.90;98752.28;5098112;28;20452;-70
2024/04/06 00:41:22;;;;;;;8.30;5.57;;;12.60;99.90;;;12.70;91.53;98760.34;5066938;28;20450;-69
2024/04/06 00:43:48;;;;;;;11.43;5.83;;;12.60;99.90;;;12.61;92.24;98755.03;5067756;28;20803;-69
2024/04/06 00:46:13;;;;;;;8.30;5.80;;;12.60;99.90;;;12.56;92.59;98746.72;5059445;28;20479;-69
2024/04/06 00:48:39;;;;;;;8.93;5.70;;;12.50;99.90;;;12.55;92.53;98745.03;5071575;28;20214;-69
2024/04/06 00:51:06;;;;;;;8.43;5.80;;;12.50;99.90;;;12.49;92.48;98747.25;5073200;28;20587;-69
2024/04/06 00:53:33;;;;;;;9.73;5.73;;;12.50;99.90;;;12.49;92.37;98741.16;5066414;28;20207;-70
2024/04/06 00:55:59;;;;;;;7.90;5.63;;;12.40;99.90;;;12.46;92.24;98738.78;5065843;28;20450;-70
2024/04/06 00:58:26;;;;;;;9.23;6.10;;;12.40;99.90;;;12.35;92.72;98737.09;5075836;28;20453;-68
2024/04/06 01:00:52;;;;;;;11.77;6.23;;;12.40;99.90;;;12.24;93.54;98739.84;5059928;28;20515;-70
2024/04/06 01:03:18;;;;;;;10.43;5.50;;;12.30;99.90;;;12.24;93.69;98732.78;5070515;28;20489;-70
2024/04/06 01:05:43;;;;;;;8.87;5.73;;;12.20;99.90;;;12.24;93.88;98727.50;5063266;28;20348;-68
2024/04/06 01:08:09;;;;;;;8.33;5.87;;;12.20;99.90;;;12.28;93.65;98722.81;5068228;28;20275;-68
2024/04/06 01:10:35;;;;;;;7.57;5.70;;;12.20;99.90;;;12.27;93.23;98721.97;5068646;28;20208;-70
2024/04/06 01:13:01;;;;;;;9.37;5.47;;;12.20;99.90;;;12.25;92.95;98723.06;5073233;28;20288;-68
2024/04/06 01:15:27;;;;;;;12.10;5.63;;;12.10;99.90;;;12.21;92.45;98705.88;5072183;28;20210;-71
2024/04/06 01:17:56;;;;;;;8.03;5.80;;;12.10;99.90;;;12.21;92.69;98705.88;5072925;28;20450;-68
2024/04/06 01:20:22;;;;;;;9.63;5.80;;;12.10;99.90;;;12.19;92.45;98708.63;5103083;28;20845;-68
2024/04/06 01:22:48;;;;;;;10.53;5.80;;;12.10;99.90;;;12.20;92.45;98705.06;5084728;28;20463;-69
2024/04/06 01:25:14;;;;;;;7.07;5.40;;;12.10;99.90;;;12.17;92.19;98709.72;5067405;28;20468;-69
2024/04/06 01:27:40;;;;;;;8.63;5.23;;;12.00;99.90;;;12.16;92.15;98702.81;5067932;28;20195;-69
2024/04/06 01:30:09;;;;;;;8.40;4.93;;;12.00;99.90;;;12.13;91.54;98706.53;5076732;28;20929;-69
2024/04/06 01:32:35;;;;;;;7.37;5.07;;;12.00;99.90;;;12.12;91.56;98706.69;5072101;28;20204;-70
2024/04/06 01:35:00;;;;;;;7.30;4.90;;;12.00;99.90;;;12.12;91.75;98706.69;5066293;28;20445;-69
2024/04/06 01:37:27;;;;;;;7.60;5.20;;;12.00;99.90;;;12.08;91.70;98692.13;5068621;28;20226;-69
2024/04/06 01:39:53;;;;;;;7.70;5.37;;;12.00;99.90;;;11.97;91.79;98698.31;5071840;28;20190;-69
2024/04/06 01:42:19;;;;;;;7.37;5.33;;;11.90;99.90;;;11.98;91.91;98690.31;5077317;28;20446;-70
2024/04/06 01:44:44;;;;;;;8.37;5.13;;;11.90;99.90;;;11.90;92.02;98694.56;5067231;28;21117;-70
2024/04/06 01:47:10;;;;;;;6.83;5.13;;;11.90;99.90;;;11.92;92.02;98696.09;5068132;28;20205;-69
2024/04/06 01:49:36;;;;;;;6.70;4.60;;;11.80;99.90;;;11.97;90.88;98707.03;5058719;28;20206;-69
2024/04/06 01:52:02;;;;;;;7.17;4.20;;;11.90;99.90;;;11.99;89.91;98702.50;5089723;28;20187;-69
2024/04/06 01:54:27;;;;;;;6.20;4.07;;;11.80;99.90;;;12.03;88.29;98698.63;5061757;28;20193;-68
2024/04/06 01:56:53;;;;;;;5.70;3.50;;;11.90;99.90;;;12.14;87.44;98702.13;5070651;28;20200;-70
2024/04/06 01:59:19;;;;;;;7.33;3.60;;;11.90;99.90;;;12.24;85.83;98711.72;5070738;28;20194;-70
2024/04/06 02:01:44;;;;;;;5.03;3.60;;;12.00;99.90;;;12.28;85.59;98712.25;5073876;28;20223;-69
2024/04/06 02:04:10;;;;;;;7.53;4.20;;;12.00;99.90;;;12.22;85.64;98718.91;5078623;28;20234;-69
2024/04/06 02:06:36;;;;;;;7.43;4.00;;;12.10;99.90;;;12.25;85.45;98713.38;5062461;28;20226;-69
2024/04/06 02:09:03;;;;;;;7.90;4.33;;;12.10;99.90;;;12.24;85.74;98721.41;5072079;28;20510;-70
2024/04/06 02:11:29;;;;;;;6.60;4.30;;;12.10;99.90;;;12.25;85.34;98721.25;5063372;28;20187;-69
2024/04/06 02:13:54;;;;;;;9.80;4.13;;;12.10;99.90;;;12.22;85.66;98720.72;5070801;28;20566;-69
2024/04/06 02:16:20;;;;;;;8.03;4.10;;;12.10;99.90;;;12.20;85.66;98717.38;5063966;28;20206;-70
2024/04/06 02:18:46;;;;;;;7.23;4.20;;;12.10;99.90;;;12.22;85.65;98712.81;5074368;28;20192;-70
2024/04/06 02:21:14;;;;;;;9.67;4.10;;;12.10;99.90;;;12.17;85.77;98710.59;5069472;28;20288;-70
2024/04/06 02:23:39;;;;;;;7.33;4.13;;;12.00;99.90;;;12.12;85.58;98704.06;5074497;28;20317;-70
2024/04/06 02:26:06;;;;;;;5.30;4.13;;;12.00;99.90;;;12.05;86.09;98701.13;5071682;28;20484;-71
2024/04/06 02:28:31;;;;;;;7.47;4.33;;;12.00;99.90;;;12.04;86.21;98692.41;5073021;28;20661;-69
2024/04/06 02:30:58;;;;;;;6.33;4.00;;;11.90;99.90;;;12.04;85.94;98705.56;5077916;28;20446;-70
2024/04/06 02:33:23;;;;;;;6.40;4.07;;;11.90;99.90;;;12.04;85.97;98704.72;5073480;28;20277;-70
2024/04/06 02:35:49;;;;;;;5.83;3.83;;;11.90;99.90;;;12.02;85.81;98702.22;5074519;28;20450;-70
2024/04/06 02:38:14;;;;;;;7.90;3.90;;;11.90;99.90;;;12.00;85.81;98701.50;5065223;28;20205;-71
2024/04/06 02:40:40;;;;;;;7.40;3.90;;;11.90;99.90;;;11.96;85.76;98701.94;5076379;28;20187;-69
2024/04/06 02:43:06;;;;;;;5.50;4.00;;;11.90;99.90;;;11.94;86.17;98703.84;5069615;28;20614;-69
2024/04/06 02:45:32;;;;;;;6.50;4.17;;;11.80;99.90;;;11.90;86.23;98707.72;5073475;28;20191;-69
2024/04/06 02:47:57;;;;;;;9.50;4.20;;;11.80;99.90;;;11.85;86.31;98709.91;5097217;28;20200;-69
2024/04/06 02:50:25;;;;;;;9.03;3.60;;;11.80;99.90;;;11.76;86.73;98708.91;5065932;28;20705;-69
2024/04/06 02:52:51;;;;;;;6.17;3.93;;;11.80;99.90;;;11.76;86.91;98716.78;5069220;28;20199;-68
2024/04/06 02:55:17;;;;;;;4.53;3.50;;;11.70;99.90;;;11.78;86.49;98714.84;5053492;28;20437;-70
2024/04/06 02:57:43;;;;;;;6.83;4.07;;;11.70;99.90;;;11.80;86.03;98719.00;5074058;28;20203;-69
2024/04/06 03:00:10;;;;;;;9.80;6.43;;;11.70;99.90;;;11.83;85.20;98713.50;5068196;28;21003;-68
2024/04/06 03:02:36;;;;;;;10.73;6.37;;;11.70;99.90;;;11.85;84.93;98721.28;5064118;28;20191;-68
2024/04/06 03:05:05;;;;;;;7.53;4.50;;;11.70;99.90;;;11.85;84.46;98713.38;5066656;28;20486;-70
2024/04/06 03:07:31;;;;;;;12.33;4.80;;;11.70;99.90;;;11.81;84.73;98706.69;5062391;28;20190;-69
2024/04/06 03:09:58;;;;;;;7.43;3.80;;;11.70;99.90;;;11.80;83.91;98702.41;5067002;28;20482;-69
2024/04/06 03:12:24;;;;;;;5.40;3.60;;;11.70;99.90;;;11.81;83.84;98709.31;5068409;28;20503;-68
2024/04/06 03:14:51;;;;;;;5.00;3.57;;;11.70;99.90;;;11.83;83.50;98712.66;5063168;28;20475;-69
2024/04/06 03:17:16;;;;;;;7.23;3.60;;;11.70;99.90;;;11.89;82.27;98711.34;5057651;28;20474;-70
2024/04/06 03:19:42;;;;;;;4.60;3.17;;;11.80;99.90;;;11.93;81.70;98712.72;5058463;28;20486;-69
2024/04/06 03:22:08;;;;;;;4.83;3.20;;;11.70;99.90;;;11.94;81.18;98714.38;5062227;28;20200;-68
2024/04/06 03:24:33;;;;;;;4.20;3.03;;;11.80;99.90;;;11.88;81.52;98723.63;5064231;28;20182;-69
2024/04/06 03:26:59;;;;;;;5.37;3.53;;;11.80;99.90;;;11.82;81.81;98722.34;5066854;28;20847;-69
2024/04/06 03:29:25;;;;;;;4.60;2.83;;;11.80;99.90;;;11.85;81.34;98728.34;5067162;28;20234;-69
2024/04/06 03:31:51;;;;;;;4.60;2.97;;;11.80;99.90;;;11.80;81.79;98734.81;5084641;28;20243;-69
2024/04/06 03:34:17;;;;;;;4.77;3.10;;;11.70;99.90;;;11.79;81.64;98737.56;5067319;28;20184;-70
2024/04/06 03:36:43;;;;;;;4.40;3.00;;;11.70;99.90;;;11.83;81.33;98744.25;5066131;28;20450;-70
2024/04/06 03:39:09;;;;;;;4.70;3.27;;;11.70;99.90;;;11.78;81.70;98741.16;5057304;28;20198;-70
2024/04/06 03:41:35;;;;;;;7.30;3.20;;;11.60;99.90;;;11.78;81.82;98742.00;5078807;28;20195;-69
2024/04/06 03:44:02;;;;;;;4.17;3.03;;;11.70;99.90;;;11.72;81.94;98744.31;5064956;28;20462;-69
2024/04/06 03:46:29;;;;;;;5.07;3.27;;;11.70;99.90;;;11.72;82.31;98741.69;5072131;28;20445;-70
2024/04/06 03:48:55;;;;;;;4.00;2.63;;;11.70;99.90;;;11.66;82.31;98748.28;5054484;28;20454;-69
2024/04/06 03:51:22;;;;;;;5.70;3.20;;;11.70;99.90;;;11.72;81.70;98741.69;5083570;28;20455;-70
2024/04/06 03:53:47;;;;;;;7.20;2.90;;;11.70;99.90;;;11.68;81.67;98740.28;5065307;28;20451;-70
2024/04/06 03:56:13;;;;;;;6.37;3.13;;;11.60;99.90;;;11.70;81.49;98733.94;5067610;28;20490;-70
2024/04/06 03:58:39;;;;;;;3.87;2.73;;;11.60;99.90;;;11.86;80.77;98730.84;5078186;28;20196;-70
2024/04/06 04:01:05;;;;;;;6.53;2.80;;;11.70;99.90;;;12.12;77.56;98731.22;5073847;28;20207;-70
2024/04/06 04:03:31;;;;;;;5.30;2.87;;;11.80;99.90;;;12.22;77.48;98728.59;5071718;28;20524;-70
2024/04/06 04:05:56;;;;;;;3.80;2.77;;;11.90;99.90;;;12.20;77.61;98733.16;5094632;28;20490;-70
2024/04/06 04:08:22;;;;;;;4.80;2.90;;;12.00;99.90;;;12.22;77.46;98728.59;5079805;28;20289;-69
2024/04/06 04:10:48;;;;;;;5.70;2.97;;;12.00;99.90;;;12.16;77.99;98723.88;5092908;28;20218;-69
2024/04/06 04:13:13;;;;;;;7.27;3.40;;;12.00;99.90;;;12.11;78.14;98734.00;5062276;28;20266;-69
2024/04/06 04:15:40;;;;;;;5.00;3.37;;;12.00;99.90;;;12.01;78.58;98739.19;5068687;28;20201;-69
2024/04/06 04:18:08;;;;;;;7.43;3.43;;;12.00;99.90;;;11.90;79.68;98737.50;5064678;28;20205;-69
2024/04/06 04:20:34;;;;;;;6.43;3.60;;;11.90;99.90;;;11.77;79.92;98744.75;5062542;28;20454;-68
2024/04/06 04:23:01;;;;;;;6.00;3.30;;;11.80;99.90;;;11.70;80.52;98746.25;5084191;28;20455;-70
2024/04/06 04:25:29;;;;;;;5.40;3.57;;;11.70;99.90;;;11.57;81.15;98741.22;5077015;28;20446;-71
2024/04/06 04:27:56;;;;;;;5.00;3.50;;;11.60;99.90;;;11.45;82.21;98740.44;5060703;28;20547;-69
2024/04/06 04:30:22;;;;;;;4.53;3.10;;;11.60;99.90;;;11.45;82.49;98753.59;5062829;28;21641;-69
2024/04/06 04:32:51;;;;;;;5.07;3.00;;;11.50;99.90;;;11.39;82.66;98748.84;5062676;28;20450;-69
2024/04/06 04:35:17;;;;;;;5.87;3.37;;;11.40;99.90;;;11.35;82.96;98752.72;5066345;28;20508;-69
2024/04/06 04:37:44;;;;;;;7.90;3.33;;;11.40;99.90;;;11.30;83.13;98747.81;5070941;28;20520;-69
2024/04/06 04:40:10;;;;;;;4.63;3.47;;;11.40;99.90;;;11.28;83.30;98752.34;5064102;28;20487;-69
2024/04/06 04:42:37;;;;;;;5.20;3.40;;;11.30;99.90;;;11.27;83.43;98755.13;5067164;28;20463;-69
2024/04/06 04:45:12;;;;;;;5.43;3.40;;;11.30;99.90;;;11.23;83.60;98751.94;5098628;28;20511;-69
2024/04/06 04:47:38;;;;;;;7.27;3.70;;;11.20;99.90;;;11.21;83.65;98753.00;5078652;28;20545;-69
2024/04/06 04:50:05;;;;;;;10.23;3.50;;;11.20;99.90;;;11.14;84.25;98755.31;5058226;28;20487;-70
2024/04/06 04:52:31;;;;;;;6.13;3.47;;;11.20;99.90;;;11.12;84.33;98757.22;5094226;28;20520;-69
2024/04/06 04:54:58;;;;;;;4.97;3.57;;;11.10;99.90;;;11.10;84.20;98757.38;5077301;28;20447;-71
2024/04/06 04:57:23;;;;;;;6.60;4.00;;;11.00;99.90;;;11.05;84.45;98762.16;5062805;28;20449;-68
2024/04/06 04:59:49;;;;;;;6.53;3.97;;;11.10;99.90;;;11.05;84.53;98750.81;5045393;28;20447;-69
2024/04/06 05:02:15;;;;;;;9.27;4.10;;;11.10;99.90;;;10.95;85.17;98756.00;5061263;28;20315;-68
2024/04/06 05:04:41;;;;;;;5.83;3.80;;;11.00;99.90;;;10.91;85.48;98759.84;5092665;28;20323;-69
2024/04/06 05:07:08;;;;;;;5.30;3.70;;;11.00;99.90;;;10.94;85.83;98771.88;5084073;28;20483;-69
2024/04/06 05:09:33;;;;;;;8.80;5.53;;;10.90;99.90;;;10.93;85.47;98768.44;5081282;28;20475;-68
2024/04/06 05:11:59;;;;;;;6.10;4.03;;;10.90;99.90;;;10.95;85.63;98765.69;5064405;28;20458;-69
2024/04/06 05:14:28;;;;;;;7.00;4.77;;;10.90;99.90;;;10.94;85.33;98762.22;5085469;28;20189;-69
2024/04/06 05:16:54;;;;;;;8.07;4.57;;;10.90;99.90;;;10.97;85.19;98761.97;5066618;28;20442;-69
2024/04/06 05:19:20;;;;;;;6.50;4.50;;;10.90;99.90;;;11.05;85.21;98756.91;5079114;28;20455;-69
2024/04/06 05:21:46;;;;;;;6.30;4.23;;;10.90;99.90;;;11.13;85.07;98756.28;5052325;28;20451;-70
2024/04/06 05:24:12;;;;;;;6.10;4.50;;;10.90;99.90;;;11.19;84.81;98760.19;5076683;28;20453;-69
2024/04/06 05:26:41;;;;;;;10.37;4.30;;;11.00;99.90;;;11.41;84.72;98767.13;5060731;28;20550;-68
2024/04/06 05:29:07;;;;;;;9.93;5.67;;;11.10;99.90;;;11.59;83.36;98771.66;5063801;28;20503;-68
2024/04/06 05:31:34;;;;;;;6.87;4.00;;;11.10;99.90;;;11.73;81.96;98767.88;5069768;28;20517;-68
2024/04/06 05:34:00;;;;;;;5.00;3.57;;;11.30;99.90;;;11.86;82.93;98766.88;5076026;28;20500;-68
2024/04/06 05:36:26;;;;;;;5.20;3.47;;;11.40;99.90;;;12.10;82.48;98769.16;5088143;28;20451;-68
2024/04/06 05:38:51;;;;;;;6.60;3.90;;;11.50;99.90;;;12.32;81.96;98768.97;5070008;28;20199;-68
2024/04/06 05:41:17;;;;;;;6.63;4.43;;;11.70;99.90;;;12.62;80.74;98768.06;5065741;28;20207;-68
2024/04/06 05:43:43;;;;;;;8.97;4.10;;;11.90;99.90;;;12.75;78.93;98767.81;5066653;28;20201;-68
2024/04/06 05:46:08;;;;;;;7.27;3.60;;;12.10;99.90;;;12.87;77.90;98772.00;5083574;28;20189;-68
2024/04/06 05:48:34;;;;;;;6.90;4.23;;;12.20;99.90;;;13.03;77.92;98778.53;5065255;28;20217;-68
2024/04/06 05:51:00;;;;;;;5.70;3.90;;;12.40;99.90;;;13.50;76.80;98779.50;5065672;28;20189;-69
2024/04/06 05:53:26;;;;;;;5.17;3.50;;;12.60;99.90;;;14.19;73.43;98772.19;5068116;28;20216;-68
2024/04/06 05:55:52;;;;;;;4.30;2.90;;;12.80;99.90;;;14.53;71.75;98769.78;5070359;28;20436;-67
2024/04/06 05:58:19;;;;;;;6.80;2.93;;;13.10;99.90;;;14.86;70.74;98776.28;5064436;28;20202;-68
2024/04/06 06:00:44;;;;;;;5.90;3.00;;;13.40;99.90;;;15.11;69.87;98779.97;5067010;28;20470;-68
2024/04/06 06:03:11;;;;;;;8.90;3.50;;;13.60;99.90;;;15.24;68.98;98783.06;5095953;28;20452;-68
2024/04/06 06:05:36;;;;;;;5.80;3.20;;;13.90;99.90;;;15.32;68.83;98778.81;5050646;28;20230;-68
2024/04/06 06:08:02;;;;;;;5.50;3.30;;;14.20;99.90;;;15.39;68.58;98780.72;5065613;28;20454;-68
2024/04/06 06:10:28;;;;;;;8.47;3.50;;;14.40;99.90;;;15.46;68.66;98779.09;5063532;28;20221;-68
2024/04/06 06:12:54;;;;;;;6.10;3.17;;;14.60;99.90;;;15.46;67.72;98787.03;5069138;28;20215;-68
2024/04/06 06:15:19;;;;;;;6.23;3.50;;;14.80;99.90;;;15.47;67.47;98787.88;5074320;28;20486;-69
2024/04/06 06:17:45;;;;;;;5.30;3.20;;;14.90;99.90;;;15.63;67.47;98787.97;5069340;28;20190;-70
2024/04/06 06:20:13;;;;;;;7.10;3.30;;;15.00;99.90;;;15.67;66.29;98786.75;5079018;28;20261;-68
2024/04/06 06:22:39;;;;;;;5.47;3.10;;;15.20;99.90;;;15.71;67.70;98792.56;5079290;28;20209;-70
2024/04/06 06:25:05;;;;;;;6.40;3.50;;;15.30;99.90;;;15.78;67.08;98785.63;5069983;28;20443;-69
2024/04/06 06:27:31;;;;;;;5.20;3.53;;;15.40;99.90;;;15.77;66.98;98788.44;5069798;28;20204;-69
2024/04/06 06:29:59;;;;;;;6.40;4.00;;;15.40;99.90;;;15.66;67.13;98792.13;5080141;28;20910;-69
2024/04/06 06:32:25;;;;;;;6.97;3.77;;;15.50;99.90;;;15.55;68.14;98789.75;5067265;28;20498;-68
2024/04/06 06:34:51;;;;;;;5.83;3.53;;;15.50;99.90;;;15.43;68.49;98782.06;5074222;28;20930;-70
2024/04/06 06:37:17;;;;;;;6.50;3.90;;;15.40;99.90;;;15.52;68.59;98786.44;5062721;28;20194;-67
2024/04/06 06:39:45;;;;;;;5.50;3.40;;;15.30;99.90;;;15.57;68.29;98778.00;5067511;28;20643;-70
2024/04/06 06:42:11;;;;;;;5.50;3.40;;;15.30;99.90;;;15.67;68.25;98781.44;5058578;28;20198;-68
2024/04/06 06:44:38;;;;;;;6.30;3.80;;;15.40;99.90;;;15.94;68.12;98782.25;5067220;28;20530;-68
2024/04/06 06:47:05;;;;;;;5.60;3.93;;;15.50;99.90;;;16.21;67.47;98784.72;5098657;28;20516;-68
2024/04/06 06:49:32;;;;;;;5.97;3.63;;;15.60;99.90;;;16.43;65.21;98779.84;5064973;28;20475;-68
2024/04/06 06:51:58;;;;;;;9.03;3.80;;;15.70;99.90;;;16.72;65.00;98773.28;5067656;28;20444;-68
2024/04/06 06:54:24;;;;;;;7.07;3.90;;;15.90;99.90;;;17.07;64.34;98781.00;5067502;28;20443;-69
2024/04/06 06:56:49;;;;;;;5.90;3.80;;;16.20;99.90;;;17.52;63.32;98782.31;5064311;28;20444;-68
2024/04/06 06:59:17;;;;;;;5.47;4.07;;;16.50;99.90;;;17.96;62.11;98778.47;5064416;28;20452;-69
2024/04/06 07:01:43;;;;;;;8.80;4.60;;;16.80;99.90;;;18.44;60.63;98788.13;5080457;28;20189;-68
2024/04/06 07:04:09;;;;;;;6.53;4.23;;;17.20;99.90;;;18.96;58.83;98792.00;5063321;28;20511;-68
2024/04/06 07:06:35;;;;;;;5.30;3.93;;;17.70;99.90;;;19.36;57.06;98793.56;5064906;28;20197;-68
2024/04/06 07:09:01;;;;;;;6.00;3.77;;;18.10;99.90;;;19.71;55.41;98795.78;5065982;28;20476;-68
2024/04/06 07:11:27;;;;;;;5.33;3.80;;;18.50;99.90;;;20.03;54.38;98794.63;5063395;28;20193;-68
2024/04/06 07:13:53;;;;;;;7.73;3.70;;;18.80;99.90;;;20.24;53.32;98785.88;5064893;28;21051;-68
2024/04/06 07:16:21;;;;;;;6.70;5.17;;;19.10;99.90;;;20.32;50.69;98783.94;5069233;28;20186;-68
2024/04/06 07:18:46;;;;;;;5.80;4.20;;;19.30;99.90;;;20.29;49.54;98783.50;5065313;28;20194;-68
2024/04/06 07:21:14;;;;;;;6.10;3.37;;;19.50;99.90;;;20.01;47.64;98780.63;5060863;28;20447;-68
2024/04/06 07:23:41;;;;;;;4.17;3.00;;;19.60;99.90;;;19.68;48.29;98776.47;5064494;28;20194;-68
2024/04/06 07:26:07;;;;;;;5.20;2.60;;;19.50;99.90;;;19.62;48.01;98771.84;5064434;28;20455;-68
2024/04/06 07:28:36;;;;;;;5.07;2.60;;;19.30;99.90;;;19.90;47.67;98780.09;5083143;28;20471;-68
2024/04/06 07:31:03;;;;;;;3.80;2.50;;;19.40;99.90;;;20.14;47.15;98776.34;5063958;28;20455;-68
2024/04/06 07:33:29;;;;;;;4.17;2.20;;;19.50;99.90;;;20.29;45.86;98778.97;5068914;28;20455;-68
2024/04/06 07:35:55;;;;;;;3.60;2.20;;;19.70;99.90;;;20.22;46.53;98780.72;5069260;28;20462;-68
2024/04/06 07:38:21;;;;;;;3.50;2.20;;;19.80;99.90;;;20.25;46.50;98772.34;5063168;28;20225;-68
2024/04/06 07:40:56;;;;;;;2.90;1.90;;;19.80;99.90;;;20.15;45.51;98766.50;5070439;28;20204;-68
2024/04/06 07:43:22;;;;;;;6.20;2.10;;;19.90;99.90;;;20.12;45.66;98759.69;5094309;28;20435;-69
2024/04/06 07:45:48;;;;;;;5.07;2.20;;;19.90;99.90;;;20.17;45.00;98769.78;5091680;28;20447;-68
2024/04/06 07:48:13;;;;;;;3.17;2.10;;;19.90;99.90;;;20.02;45.43;98767.13;5065688;28;20186;-67
2024/04/06 07:50:41;;;;;;;3.00;1.90;;;19.80;99.90;;;20.27;45.14;98765.00;5080117;28;20553;-67
2024/04/06 07:53:07;;;;;;;3.53;1.93;;;19.90;99.90;;;20.16;45.18;98757.47;5065086;28;20186;-67
2024/04/06 07:55:33;;;;;;;3.20;2.00;;;19.90;99.90;;;20.42;45.69;98748.13;5060499;28;20444;-67
2024/04/06 07:57:58;;;;;;;4.90;2.27;;;20.10;99.90;;;20.50;45.14;98748.03;5065644;28;20185;-67
2024/04/06 08:00:24;;;;;;;4.43;2.00;;;20.10;99.90;;;20.52;43.93;98746.88;5065875;28;20193;-68
2024/04/06 08:02:50;;;;;;;5.27;2.10;;;20.20;99.90;;;20.76;44.25;98750.19;5093176;28;20259;-67
2024/04/06 08:05:16;;;;;;;3.27;2.07;;;20.30;99.90;;;21.06;44.21;98754.44;5069598;28;20232;-67
2024/04/06 08:07:41;;;;;;;3.50;2.00;;;20.50;99.90;;;21.30;42.94;98744.34;5074001;28;20196;-66
2024/04/06 08:10:16;;;;;;;5.63;2.10;;;20.70;99.90;;;21.25;42.48;98736.94;5077738;28;20216;-68
2024/04/06 08:12:43;;;;;;;5.27;2.10;;;20.80;99.90;;;21.26;42.51;98737.75;5073413;28;20673;-66
2024/04/06 08:15:10;;;;;;;4.00;2.10;;;20.90;99.90;;;21.46;42.52;98735.25;5065164;28;20935;-67
2024/04/06 08:17:43;;;;;;;3.73;2.13;;;21.00;99.90;;;21.39;42.25;98726.38;5053048;28;20443;-68
2024/04/06 08:20:09;;;;;;;2.90;2.03;;;21.00;99.90;;;21.38;41.62;98732.75;5056510;28;20833;-67
2024/04/06 08:22:36;;;;;;;3.43;2.10;;;21.10;99.90;;;21.60;41.87;98738.88;5073047;28;20567;-68
2024/04/06 08:25:05;;;;;;;3.23;1.80;;;21.20;99.90;;;21.70;41.44;98748.19;5069820;28;20455;-68
2024/04/06 08:27:35;;;;;;;4.83;1.87;;;21.20;99.90;;;22.04;40.88;98745.72;5068851;28;20475;-68
2024/04/06 08:30:04;;;;;;;4.00;1.80;;;21.40;99.90;;;22.32;41.07;98741.16;5055553;28;20467;-67
2024/04/06 08:32:32;;;;;;;2.90;1.80;;;21.60;99.90;;;22.14;40.64;98741.66;5087333;28;21239;-68
2024/04/06 08:34:59;;;;;;;3.37;1.87;;;21.70;99.90;;;22.02;41.07;98735.22;5069901;28;20440;-69
2024/04/06 08:37:25;;;;;;;3.20;1.90;;;21.70;99.90;;;22.25;40.07;98742.13;5069884;28;20440;-67
2024/04/06 08:39:51;;;;;;;4.37;1.90;;;21.70;99.90;;;22.21;39.21;98728.34;5068021;28;20462;-68
2024/04/06 08:42:19;;;;;;;2.87;2.00;;;21.80;99.90;;;21.75;39.79;98739.56;5063062;28;20452;-69
2024/04/06 08:44:46;;;;;;;4.90;2.00;;;21.70;99.90;;;21.71;39.48;98728.44;5064845;28;20197;-70
2024/04/06 08:47:17;;;;;;;2.70;1.70;;;21.60;99.90;;;21.70;39.41;98726.78;5069765;28;20490;-68
2024/04/06 08:49:43;;;;;;;3.63;2.00;;;21.50;99.90;;;21.69;39.22;98726.97;5065190;28;20479;-69
2024/04/06 08:52:10;;;;;;;3.73;1.80;;;21.40;99.90;;;21.63;38.71;98727.78;5072645;28;20508;-68
2024/04/06 08:54:37;;;;;;;4.47;2.07;;;21.40;99.90;;;21.79;39.12;98734.69;5058938;28;20440;-67
2024/04/06 08:57:04;;;;;;;5.13;1.73;;;21.40;99.90;;;21.99;39.20;98733.75;5066974;28;20923;-67
2024/04/06 08:59:31;;;;;;;3.13;2.00;;;21.50;99.90;;;21.97;38.07;98729.63;5061598;28;20537;-68
2024/04/06 09:01:57;;;;;;;3.00;1.90;;;21.60;99.90;;;22.00;38.02;98734.56;5071789;28;20583;-69
2024/04/06 09:04:22;;;;;;;3.90;1.90;;;21.60;99.90;;;22.28;38.06;98741.75;5067677;28;22508;-67
2024/04/06 09:06:48;;;;;;;3.23;1.73;;;21.80;99.90;;;22.40;36.96;98724.91;5071819;28;20738;-68
2024/04/06 09:09:15;;;;;;;6.23;2.00;;;21.90;99.90;;;22.40;37.06;98727.59;5058895;28;20213;-67
2024/04/06 09:11:43;;;;;;;3.13;1.80;;;21.90;99.90;;;22.13;38.22;98726.63;5068188;28;20185;-68
2024/04/06 09:14:11;;;;;;;3.47;2.10;;;21.90;99.90;;;22.25;37.52;98734.09;5051989;28;21291;-68
2024/04/06 09:16:41;;;;;;;3.20;2.10;;;21.90;99.90;;;22.42;37.79;98728.22;5096045;28;20532;-68
2024/04/06 09:19:08;;;;;;;2.80;1.97;;;22.00;99.90;;;22.39;36.96;98733.97;5070492;28;20432;-68
2024/04/06 09:21:33;;;;;;;3.10;2.00;;;22.00;99.90;;;22.27;36.90;98724.88;5067282;28;20456;-68
2024/04/06 09:24:01;;;;;;;4.00;1.90;;;22.00;99.90;;;22.30;37.44;98719.13;5077626;28;20474;-69
2024/04/06 09:26:36;;;;;;;3.80;2.07;;;22.00;99.90;;;22.48;37.02;98713.22;5078424;28;20197;-69
2024/04/06 09:29:02;;;;;;;3.63;2.10;;;22.00;99.90;;;22.77;37.00;98712.03;5069650;28;20490;-70
2024/04/06 09:31:28;;;;;;;3.03;1.90;;;22.20;99.90;;;22.97;36.50;98714.78;5081848;28;20444;-70
2024/04/06 09:33:59;;;;;;;5.50;1.90;;;22.40;99.90;;;23.08;36.08;98710.69;5093413;28;20199;-69
2024/04/06 09:36:26;;;;;;;3.27;2.23;;;22.60;99.90;;;23.27;37.47;98703.66;5074012;28;20454;-70
2024/04/06 09:38:54;;;;;;;4.10;2.13;;;22.60;99.90;;;23.60;36.21;98704.44;5069882;28;20451;-69
2024/04/06 09:41:21;;;;;;;3.40;1.80;;;22.80;99.90;;;23.79;35.60;98708.16;5071099;28;21044;-69
2024/04/06 09:43:54;;;;;;;4.37;2.00;;;23.10;99.90;;;23.60;35.81;98712.50;5075691;28;20439;-69
2024/04/06 09:46:20;;;;;;;3.43;2.00;;;23.10;99.90;;;23.27;36.02;98715.22;5045063;28;20443;-70
2024/04/06 09:48:48;;;;;;;3.27;1.87;;;23.10;99.90;;;23.03;34.70;98708.59;5060100;28;20551;-68
2024/04/06 09:51:14;;;;;;;3.87;1.90;;;22.90;99.90;;;22.84;36.13;98714.72;5072380;28;20451;-69
2024/04/06 09:53:43;;;;;;;2.60;1.70;;;22.70;99.90;;;22.49;35.26;98706.00;5066340;28;20460;-70
2024/04/06 09:56:10;;;;;;;4.27;1.83;;;22.40;99.90;;;22.38;36.08;98700.22;5102584;28;20486;-70
2024/04/06 09:58:45;;;;;;;3.63;1.90;;;22.30;99.90;;;22.55;35.87;98697.16;5069516;28;20515;-70
2024/04/06 10:01:15;;;;;;;4.00;2.03;;;22.30;99.90;;;22.63;37.00;98696.97;5074526;28;20446;-70
2024/04/06 10:03:47;;;;;;;3.90;1.80;;;22.30;99.90;;;22.46;37.06;98696.50;5066276;28;20432;-70
2024/04/06 10:06:18;;;;;;;6.10;2.00;;;22.20;99.90;;;22.58;35.99;98699.44;5092677;28;20485;-70
2024/04/06 10:09:00;;;;;;;2.50;1.70;;;22.20;99.90;;;22.71;36.30;98706.69;5083325;28;20507;-69
2024/04/06 10:11:28;;;;;;;8.03;2.13;;;22.30;99.90;;;22.74;36.20;98698.22;5070761;28;20447;-69
2024/04/06 10:13:58;;;;;;;2.60;1.83;;;22.40;99.90;;;22.62;35.95;98706.84;5063054;28;20508;-70
2024/04/06 10:16:26;;;;;;;3.00;1.80;;;22.30;99.90;;;22.80;36.63;98708.13;5063299;28;20530;-70